sensor_id;sensor_type;location;lat;lon;timestamp;P1;durP1;ratioP1;P2;durP2;ratioP2
69083;SDS011;56185;48.526;9.044;2023-07-30T00:00:57;4.50;;;3.10;;
69083;SDS011;56185;48.526;9.044;2023-07-30T00:03:22;7.27;;;3.20;;
69083;SDS011;56185;48.526;9.044;2023-07-30T00:05:56;7.17;;;3.63;;
69083;SDS011;56185;48.526;9.044;2023-07-30T00:10:47;9.00;;;3.13;;
69083;SDS011;56185;48.526;9.044;2023-07-30T00:13:13;6.20;;;3.30;;
69083;SDS011;56185;48.526;9.044;2023-07-30T00:15:39;11.90;;;3.35;;
69083;SDS011;56185;48.526;9.044;2023-07-30T00:18:04;7.43;;;3.40;;
69083;SDS011;56185;48.526;9.044;2023-07-30T00:20:29;4.83;;;3.50;;
69083;SDS011;56185;48.526;9.044;2023-07-30T00:22:54;4.13;;;3.40;;
69083;SDS011;56185;48.526;9.044;2023-07-30T00:25:19;6.10;;;3.43;;
69083;SDS011;56185;48.526;9.044;2023-07-30T00:27:45;5.70;;;3.50;;
69083;SDS011;56185;48.526;9.044;2023-07-30T00:30:10;5.10;;;3.17;;
69083;SDS011;56185;48.526;9.044;2023-07-30T00:32:36;4.35;;;3.22;;
69083;SDS011;56185;48.526;9.044;2023-07-30T00:35:01;5.87;;;3.30;;
69083;SDS011;56185;48.526;9.044;2023-07-30T00:37:26;6.87;;;2.90;;
69083;SDS011;56185;48.526;9.044;2023-07-30T00:39:51;4.70;;;3.13;;
69083;SDS011;56185;48.526;9.044;2023-07-30T00:42:17;4.30;;;2.53;;
69083;SDS011;56185;48.526;9.044;2023-07-30T00:44:42;3.43;;;2.57;;
69083;SDS011;56185;48.526;9.044;2023-07-30T00:47:07;4.70;;;2.60;;
69083;SDS011;56185;48.526;9.044;2023-07-30T00:49:33;3.00;;;2.50;;
69083;SDS011;56185;48.526;9.044;2023-07-30T00:51:58;7.40;;;2.75;;
69083;SDS011;56185;48.526;9.044;2023-07-30T00:54:24;4.32;;;2.65;;
69083;SDS011;56185;48.526;9.044;2023-07-30T00:56:51;4.20;;;2.50;;
69083;SDS011;56185;48.526;9.044;2023-07-30T00:59:18;4.80;;;2.58;;
69083;SDS011;56185;48.526;9.044;2023-07-30T01:01:46;5.07;;;2.65;;
69083;SDS011;56185;48.526;9.044;2023-07-30T01:04:11;4.35;;;2.80;;
69083;SDS011;56185;48.526;9.044;2023-07-30T01:06:37;3.67;;;2.58;;
69083;SDS011;56185;48.526;9.044;2023-07-30T01:09:02;4.50;;;2.50;;
69083;SDS011;56185;48.526;9.044;2023-07-30T01:11:27;4.38;;;2.50;;
69083;SDS011;56185;48.526;9.044;2023-07-30T01:13:54;4.82;;;2.40;;
69083;SDS011;56185;48.526;9.044;2023-07-30T01:16:20;5.82;;;2.80;;
69083;SDS011;56185;48.526;9.044;2023-07-30T01:18:45;3.55;;;2.53;;
69083;SDS011;56185;48.526;9.044;2023-07-30T01:21:10;3.13;;;2.30;;
69083;SDS011;56185;48.526;9.044;2023-07-30T01:23:36;4.40;;;2.70;;
69083;SDS011;56185;48.526;9.044;2023-07-30T01:26:07;3.88;;;2.50;;
69083;SDS011;56185;48.526;9.044;2023-07-30T01:28:36;3.78;;;2.42;;
69083;SDS011;56185;48.526;9.044;2023-07-30T01:31:06;7.47;;;2.90;;
69083;SDS011;56185;48.526;9.044;2023-07-30T01:33:32;5.88;;;2.47;;
69083;SDS011;56185;48.526;9.044;2023-07-30T01:35:57;3.40;;;2.50;;
69083;SDS011;56185;48.526;9.044;2023-07-30T01:38:23;4.00;;;2.45;;
69083;SDS011;56185;48.526;9.044;2023-07-30T01:40:50;4.55;;;2.80;;
69083;SDS011;56185;48.526;9.044;2023-07-30T01:43:16;5.18;;;2.40;;
69083;SDS011;56185;48.526;9.044;2023-07-30T01:45:41;6.83;;;2.83;;
69083;SDS011;56185;48.526;9.044;2023-07-30T01:48:06;3.30;;;2.73;;
69083;SDS011;56185;48.526;9.044;2023-07-30T01:50:31;6.80;;;2.95;;
69083;SDS011;56185;48.526;9.044;2023-07-30T01:52:57;5.10;;;2.60;;
69083;SDS011;56185;48.526;9.044;2023-07-30T01:55:22;3.27;;;2.53;;
69083;SDS011;56185;48.526;9.044;2023-07-30T01:57:47;5.03;;;2.80;;
69083;SDS011;56185;48.526;9.044;2023-07-30T02:00:12;6.57;;;2.80;;
69083;SDS011;56185;48.526;9.044;2023-07-30T02:02:39;4.60;;;2.50;;
69083;SDS011;56185;48.526;9.044;2023-07-30T02:05:04;3.65;;;2.55;;
69083;SDS011;56185;48.526;9.044;2023-07-30T02:07:29;5.93;;;2.67;;
69083;SDS011;56185;48.526;9.044;2023-07-30T02:09:55;7.77;;;2.70;;
69083;SDS011;56185;48.526;9.044;2023-07-30T02:12:21;4.78;;;2.28;;
69083;SDS011;56185;48.526;9.044;2023-07-30T02:14:46;5.38;;;2.67;;
69083;SDS011;56185;48.526;9.044;2023-07-30T02:17:11;6.27;;;2.77;;
69083;SDS011;56185;48.526;9.044;2023-07-30T02:19:37;8.97;;;2.90;;
69083;SDS011;56185;48.526;9.044;2023-07-30T02:22:02;6.07;;;3.13;;
69083;SDS011;56185;48.526;9.044;2023-07-30T02:24:27;5.93;;;3.13;;
69083;SDS011;56185;48.526;9.044;2023-07-30T02:26:52;4.17;;;2.70;;
69083;SDS011;56185;48.526;9.044;2023-07-30T02:29:18;7.40;;;3.10;;
69083;SDS011;56185;48.526;9.044;2023-07-30T02:31:43;3.67;;;2.67;;
69083;SDS011;56185;48.526;9.044;2023-07-30T02:34:08;3.00;;;2.63;;
69083;SDS011;56185;48.526;9.044;2023-07-30T02:36:33;5.37;;;2.97;;
69083;SDS011;56185;48.526;9.044;2023-07-30T02:38:58;5.87;;;2.77;;
69083;SDS011;56185;48.526;9.044;2023-07-30T02:41:24;7.87;;;2.63;;
69083;SDS011;56185;48.526;9.044;2023-07-30T02:43:49;8.33;;;3.20;;
69083;SDS011;56185;48.526;9.044;2023-07-30T02:46:14;4.40;;;2.70;;
69083;SDS011;56185;48.526;9.044;2023-07-30T02:48:39;3.73;;;2.60;;
69083;SDS011;56185;48.526;9.044;2023-07-30T02:51:05;3.93;;;2.80;;
69083;SDS011;56185;48.526;9.044;2023-07-30T02:53:30;5.00;;;2.63;;
69083;SDS011;56185;48.526;9.044;2023-07-30T02:55:55;4.60;;;2.80;;
69083;SDS011;56185;48.526;9.044;2023-07-30T02:58:20;6.47;;;2.60;;
69083;SDS011;56185;48.526;9.044;2023-07-30T03:00:48;3.90;;;2.70;;
69083;SDS011;56185;48.526;9.044;2023-07-30T03:03:14;5.00;;;2.70;;
69083;SDS011;56185;48.526;9.044;2023-07-30T03:05:41;5.60;;;2.65;;
69083;SDS011;56185;48.526;9.044;2023-07-30T03:08:07;6.05;;;2.65;;
69083;SDS011;56185;48.526;9.044;2023-07-30T03:10:32;6.23;;;3.20;;
69083;SDS011;56185;48.526;9.044;2023-07-30T03:12:57;6.07;;;2.57;;
69083;SDS011;56185;48.526;9.044;2023-07-30T03:15:22;5.10;;;2.77;;
69083;SDS011;56185;48.526;9.044;2023-07-30T03:17:48;6.23;;;3.00;;
69083;SDS011;56185;48.526;9.044;2023-07-30T03:20:13;5.87;;;2.83;;
69083;SDS011;56185;48.526;9.044;2023-07-30T03:22:38;4.83;;;2.43;;
69083;SDS011;56185;48.526;9.044;2023-07-30T03:25:03;3.37;;;2.50;;
69083;SDS011;56185;48.526;9.044;2023-07-30T03:27:29;3.25;;;2.60;;
69083;SDS011;56185;48.526;9.044;2023-07-30T03:29:54;7.83;;;2.90;;
69083;SDS011;56185;48.526;9.044;2023-07-30T03:32:19;4.97;;;2.67;;
69083;SDS011;56185;48.526;9.044;2023-07-30T03:34:45;4.90;;;2.50;;
69083;SDS011;56185;48.526;9.044;2023-07-30T03:37:10;5.43;;;2.50;;
69083;SDS011;56185;48.526;9.044;2023-07-30T03:39:35;5.60;;;2.60;;
69083;SDS011;56185;48.526;9.044;2023-07-30T03:42:00;3.33;;;2.40;;
69083;SDS011;56185;48.526;9.044;2023-07-30T03:44:26;3.92;;;2.60;;
69083;SDS011;56185;48.526;9.044;2023-07-30T03:46:51;5.05;;;2.63;;
69083;SDS011;56185;48.526;9.044;2023-07-30T03:49:16;4.07;;;2.77;;
69083;SDS011;56185;48.526;9.044;2023-07-30T03:51:41;5.53;;;2.47;;
69083;SDS011;56185;48.526;9.044;2023-07-30T03:54:07;3.90;;;2.80;;
69083;SDS011;56185;48.526;9.044;2023-07-30T03:56:32;4.63;;;2.80;;
69083;SDS011;56185;48.526;9.044;2023-07-30T03:58:57;6.20;;;2.20;;
69083;SDS011;56185;48.526;9.044;2023-07-30T04:01:22;3.73;;;2.20;;
69083;SDS011;56185;48.526;9.044;2023-07-30T04:03:48;5.60;;;2.40;;
69083;SDS011;56185;48.526;9.044;2023-07-30T04:06:13;5.13;;;2.53;;
69083;SDS011;56185;48.526;9.044;2023-07-30T04:08:38;6.07;;;2.50;;
69083;SDS011;56185;48.526;9.044;2023-07-30T04:11:04;4.07;;;2.90;;
69083;SDS011;56185;48.526;9.044;2023-07-30T04:13:29;4.93;;;2.50;;
69083;SDS011;56185;48.526;9.044;2023-07-30T04:15:54;5.53;;;2.40;;
69083;SDS011;56185;48.526;9.044;2023-07-30T04:18:20;8.00;;;2.60;;
69083;SDS011;56185;48.526;9.044;2023-07-30T04:20:46;4.20;;;2.50;;
69083;SDS011;56185;48.526;9.044;2023-07-30T04:23:11;3.73;;;2.10;;
69083;SDS011;56185;48.526;9.044;2023-07-30T04:25:36;3.83;;;2.73;;
69083;SDS011;56185;48.526;9.044;2023-07-30T04:28:01;6.97;;;2.57;;
69083;SDS011;56185;48.526;9.044;2023-07-30T04:30:27;4.65;;;2.25;;
69083;SDS011;56185;48.526;9.044;2023-07-30T04:32:52;3.93;;;2.40;;
69083;SDS011;56185;48.526;9.044;2023-07-30T04:35:17;3.13;;;2.20;;
69083;SDS011;56185;48.526;9.044;2023-07-30T04:37:42;2.60;;;2.00;;
69083;SDS011;56185;48.526;9.044;2023-07-30T04:40:08;4.38;;;2.30;;
69083;SDS011;56185;48.526;9.044;2023-07-30T04:42:33;6.90;;;2.55;;
69083;SDS011;56185;48.526;9.044;2023-07-30T04:44:59;7.67;;;2.60;;
69083;SDS011;56185;48.526;9.044;2023-07-30T04:47:24;5.85;;;2.40;;
69083;SDS011;56185;48.526;9.044;2023-07-30T04:49:49;3.90;;;2.23;;
69083;SDS011;56185;48.526;9.044;2023-07-30T04:52:15;4.60;;;2.10;;
69083;SDS011;56185;48.526;9.044;2023-07-30T04:54:40;6.35;;;2.30;;
69083;SDS011;56185;48.526;9.044;2023-07-30T04:57:05;7.38;;;2.28;;
69083;SDS011;56185;48.526;9.044;2023-07-30T04:59:31;4.75;;;2.65;;
69083;SDS011;56185;48.526;9.044;2023-07-30T05:01:56;3.55;;;2.10;;
69083;SDS011;56185;48.526;9.044;2023-07-30T05:04:21;5.57;;;2.60;;
69083;SDS011;56185;48.526;9.044;2023-07-30T05:06:46;3.47;;;2.37;;
69083;SDS011;56185;48.526;9.044;2023-07-30T05:09:12;3.67;;;2.70;;
69083;SDS011;56185;48.526;9.044;2023-07-30T05:11:38;4.30;;;2.40;;
69083;SDS011;56185;48.526;9.044;2023-07-30T05:14:03;3.58;;;2.40;;
69083;SDS011;56185;48.526;9.044;2023-07-30T05:16:29;3.37;;;2.60;;
69083;SDS011;56185;48.526;9.044;2023-07-30T05:18:54;3.65;;;2.30;;
69083;SDS011;56185;48.526;9.044;2023-07-30T05:21:19;3.58;;;2.67;;
69083;SDS011;56185;48.526;9.044;2023-07-30T05:23:45;4.75;;;2.67;;
69083;SDS011;56185;48.526;9.044;2023-07-30T05:26:10;3.87;;;2.60;;
69083;SDS011;56185;48.526;9.044;2023-07-30T05:28:35;3.47;;;2.53;;
69083;SDS011;56185;48.526;9.044;2023-07-30T05:31:00;5.43;;;2.30;;
69083;SDS011;56185;48.526;9.044;2023-07-30T05:33:26;4.18;;;2.50;;
69083;SDS011;56185;48.526;9.044;2023-07-30T05:35:51;4.90;;;2.60;;
69083;SDS011;56185;48.526;9.044;2023-07-30T05:38:16;3.57;;;2.80;;
69083;SDS011;56185;48.526;9.044;2023-07-30T05:40:41;5.97;;;2.60;;
69083;SDS011;56185;48.526;9.044;2023-07-30T05:43:07;3.00;;;2.28;;
69083;SDS011;56185;48.526;9.044;2023-07-30T05:45:33;4.47;;;2.70;;
69083;SDS011;56185;48.526;9.044;2023-07-30T05:47:59;4.57;;;2.53;;
69083;SDS011;56185;48.526;9.044;2023-07-30T05:50:24;5.28;;;2.92;;
69083;SDS011;56185;48.526;9.044;2023-07-30T05:52:49;2.87;;;2.20;;
69083;SDS011;56185;48.526;9.044;2023-07-30T05:55:15;4.03;;;2.63;;
69083;SDS011;56185;48.526;9.044;2023-07-30T05:57:40;3.25;;;2.45;;
69083;SDS011;56185;48.526;9.044;2023-07-30T06:00:05;5.00;;;2.37;;
69083;SDS011;56185;48.526;9.044;2023-07-30T06:02:31;9.02;;;3.10;;
69083;SDS011;56185;48.526;9.044;2023-07-30T06:04:56;3.93;;;2.53;;
69083;SDS011;56185;48.526;9.044;2023-07-30T06:07:21;5.23;;;2.30;;
69083;SDS011;56185;48.526;9.044;2023-07-30T06:09:47;5.43;;;2.30;;
69083;SDS011;56185;48.526;9.044;2023-07-30T06:12:12;3.55;;;2.40;;
69083;SDS011;56185;48.526;9.044;2023-07-30T06:17:42;3.65;;;2.28;;
69083;SDS011;56185;48.526;9.044;2023-07-30T06:20:14;2.85;;;2.13;;
69083;SDS011;56185;48.526;9.044;2023-07-30T06:22:40;4.05;;;2.28;;
69083;SDS011;56185;48.526;9.044;2023-07-30T06:25:05;3.25;;;2.40;;
69083;SDS011;56185;48.526;9.044;2023-07-30T06:27:30;3.67;;;2.42;;
69083;SDS011;56185;48.526;9.044;2023-07-30T06:29:56;3.63;;;2.13;;
69083;SDS011;56185;48.526;9.044;2023-07-30T06:32:21;4.27;;;2.17;;
69083;SDS011;56185;48.526;9.044;2023-07-30T06:34:46;2.67;;;2.03;;
69083;SDS011;56185;48.526;9.044;2023-07-30T06:37:11;3.03;;;2.10;;
69083;SDS011;56185;48.526;9.044;2023-07-30T06:39:37;3.60;;;2.10;;
69083;SDS011;56185;48.526;9.044;2023-07-30T06:42:02;3.30;;;2.25;;
69083;SDS011;56185;48.526;9.044;2023-07-30T06:44:27;2.50;;;2.00;;
69083;SDS011;56185;48.526;9.044;2023-07-30T06:46:53;5.63;;;2.30;;
69083;SDS011;56185;48.526;9.044;2023-07-30T06:49:25;5.23;;;2.70;;
69083;SDS011;56185;48.526;9.044;2023-07-30T06:51:50;4.80;;;2.38;;
69083;SDS011;56185;48.526;9.044;2023-07-30T06:54:15;3.40;;;2.30;;
69083;SDS011;56185;48.526;9.044;2023-07-30T06:56:44;2.77;;;2.03;;
69083;SDS011;56185;48.526;9.044;2023-07-30T06:59:09;3.53;;;1.98;;
69083;SDS011;56185;48.526;9.044;2023-07-30T07:01:34;3.13;;;2.20;;
69083;SDS011;56185;48.526;9.044;2023-07-30T07:03:59;3.77;;;2.40;;
69083;SDS011;56185;48.526;9.044;2023-07-30T07:06:33;3.17;;;2.13;;
69083;SDS011;56185;48.526;9.044;2023-07-30T07:16:51;2.90;;;1.90;;
69083;SDS011;56185;48.526;9.044;2023-07-30T07:19:19;3.15;;;1.80;;
69083;SDS011;56185;48.526;9.044;2023-07-30T07:21:44;4.57;;;1.95;;
69083;SDS011;56185;48.526;9.044;2023-07-30T07:24:09;3.17;;;2.00;;
69083;SDS011;56185;48.526;9.044;2023-07-30T07:26:37;3.37;;;1.77;;
69083;SDS011;56185;48.526;9.044;2023-07-30T07:29:02;3.22;;;1.83;;
69083;SDS011;56185;48.526;9.044;2023-07-30T07:31:28;4.03;;;2.22;;
69083;SDS011;56185;48.526;9.044;2023-07-30T07:33:54;5.82;;;2.42;;
69083;SDS011;56185;48.526;9.044;2023-07-30T07:36:19;3.72;;;2.10;;
69083;SDS011;56185;48.526;9.044;2023-07-30T07:38:45;4.00;;;2.03;;
69083;SDS011;56185;48.526;9.044;2023-07-30T07:41:16;2.83;;;1.70;;
69083;SDS011;56185;48.526;9.044;2023-07-30T07:43:42;2.60;;;1.80;;
69083;SDS011;56185;48.526;9.044;2023-07-30T07:46:08;2.92;;;1.90;;
69083;SDS011;56185;48.526;9.044;2023-07-30T07:48:48;7.55;;;1.80;;
69083;SDS011;56185;48.526;9.044;2023-07-30T07:51:13;2.60;;;1.80;;
69083;SDS011;56185;48.526;9.044;2023-07-30T07:53:39;3.43;;;1.50;;
69083;SDS011;56185;48.526;9.044;2023-07-30T07:56:04;4.97;;;1.73;;
69083;SDS011;56185;48.526;9.044;2023-07-30T07:58:31;1.80;;;1.50;;
69083;SDS011;56185;48.526;9.044;2023-07-30T08:00:58;2.25;;;1.60;;
69083;SDS011;56185;48.526;9.044;2023-07-30T08:03:23;2.85;;;1.95;;
69083;SDS011;56185;48.526;9.044;2023-07-30T08:08:40;2.15;;;1.60;;
69083;SDS011;56185;48.526;9.044;2023-07-30T08:11:06;2.17;;;1.57;;
69083;SDS011;56185;48.526;9.044;2023-07-30T08:13:32;3.03;;;1.60;;
69083;SDS011;56185;48.526;9.044;2023-07-30T08:15:57;1.90;;;1.38;;
69083;SDS011;56185;48.526;9.044;2023-07-30T08:18:23;2.17;;;1.60;;
69083;SDS011;56185;48.526;9.044;2023-07-30T08:20:49;3.87;;;1.70;;
69083;SDS011;56185;48.526;9.044;2023-07-30T08:23:14;2.08;;;1.60;;
69083;SDS011;56185;48.526;9.044;2023-07-30T08:25:51;2.25;;;1.63;;
69083;SDS011;56185;48.526;9.044;2023-07-30T08:28:19;2.40;;;1.48;;
69083;SDS011;56185;48.526;9.044;2023-07-30T08:30:45;2.25;;;1.40;;
69083;SDS011;56185;48.526;9.044;2023-07-30T08:33:21;2.17;;;1.58;;
69083;SDS011;56185;48.526;9.044;2023-07-30T08:41:34;2.38;;;1.50;;
69083;SDS011;56185;48.526;9.044;2023-07-30T08:43:59;1.98;;;1.42;;
69083;SDS011;56185;48.526;9.044;2023-07-30T08:46:35;2.20;;;1.20;;
69083;SDS011;56185;48.526;9.044;2023-07-30T08:49:02;5.32;;;1.23;;
69083;SDS011;56185;48.526;9.044;2023-07-30T08:51:44;1.98;;;1.40;;
69083;SDS011;56185;48.526;9.044;2023-07-30T08:57:22;3.20;;;1.63;;
69083;SDS011;56185;48.526;9.044;2023-07-30T09:05:13;1.80;;;1.40;;
69083;SDS011;56185;48.526;9.044;2023-07-30T09:07:38;2.03;;;1.52;;
69083;SDS011;56185;48.526;9.044;2023-07-30T09:10:07;2.20;;;1.50;;
69083;SDS011;56185;48.526;9.044;2023-07-30T09:15:35;3.22;;;1.30;;
69083;SDS011;56185;48.526;9.044;2023-07-30T09:18:02;1.60;;;1.30;;
69083;SDS011;56185;48.526;9.044;2023-07-30T09:20:28;2.22;;;1.50;;
69083;SDS011;56185;48.526;9.044;2023-07-30T09:23:19;2.03;;;1.48;;
69083;SDS011;56185;48.526;9.044;2023-07-30T09:33:50;2.20;;;1.60;;
69083;SDS011;56185;48.526;9.044;2023-07-30T09:36:15;2.60;;;1.43;;
69083;SDS011;56185;48.526;9.044;2023-07-30T09:38:49;3.35;;;1.40;;
69083;SDS011;56185;48.526;9.044;2023-07-30T09:41:15;1.77;;;1.10;;
69083;SDS011;56185;48.526;9.044;2023-07-30T09:46:23;2.13;;;1.30;;
69083;SDS011;56185;48.526;9.044;2023-07-30T09:48:57;3.75;;;1.67;;
69083;SDS011;56185;48.526;9.044;2023-07-30T09:51:23;2.15;;;1.42;;
69083;SDS011;56185;48.526;9.044;2023-07-30T09:53:57;4.80;;;1.70;;
69083;SDS011;56185;48.526;9.044;2023-07-30T09:56:49;1.90;;;1.40;;
69083;SDS011;56185;48.526;9.044;2023-07-30T09:59:21;1.90;;;1.30;;
69083;SDS011;56185;48.526;9.044;2023-07-30T10:01:52;1.90;;;1.38;;
69083;SDS011;56185;48.526;9.044;2023-07-30T10:04:21;2.83;;;1.50;;
69083;SDS011;56185;48.526;9.044;2023-07-30T10:09:55;2.10;;;1.33;;
69083;SDS011;56185;48.526;9.044;2023-07-30T10:12:27;2.58;;;1.63;;
69083;SDS011;56185;48.526;9.044;2023-07-30T10:14:56;1.88;;;1.40;;
69083;SDS011;56185;48.526;9.044;2023-07-30T10:23:06;2.30;;;1.50;;
69083;SDS011;56185;48.526;9.044;2023-07-30T10:25:48;2.05;;;1.50;;
69083;SDS011;56185;48.526;9.044;2023-07-30T10:28:33;2.65;;;1.50;;
69083;SDS011;56185;48.526;9.044;2023-07-30T10:31:05;2.60;;;1.45;;
69083;SDS011;56185;48.526;9.044;2023-07-30T10:33:51;2.33;;;1.50;;
69083;SDS011;56185;48.526;9.044;2023-07-30T10:36:18;3.17;;;1.45;;
69083;SDS011;56185;48.526;9.044;2023-07-30T10:38:55;3.88;;;1.60;;
69083;SDS011;56185;48.526;9.044;2023-07-30T10:41:23;2.80;;;1.60;;
69083;SDS011;56185;48.526;9.044;2023-07-30T10:43:49;2.83;;;1.60;;
69083;SDS011;56185;48.526;9.044;2023-07-30T10:46:17;4.80;;;1.60;;
69083;SDS011;56185;48.526;9.044;2023-07-30T10:48:44;2.63;;;1.65;;
69083;SDS011;56185;48.526;9.044;2023-07-30T10:51:18;2.67;;;1.40;;
69083;SDS011;56185;48.526;9.044;2023-07-30T10:53:47;3.50;;;1.45;;
69083;SDS011;56185;48.526;9.044;2023-07-30T10:56:16;2.33;;;1.45;;
69083;SDS011;56185;48.526;9.044;2023-07-30T10:58:49;2.85;;;1.55;;
69083;SDS011;56185;48.526;9.044;2023-07-30T11:01:15;4.00;;;1.63;;
69083;SDS011;56185;48.526;9.044;2023-07-30T11:03:43;2.38;;;1.40;;
69083;SDS011;56185;48.526;9.044;2023-07-30T11:09:22;3.03;;;1.63;;
69083;SDS011;56185;48.526;9.044;2023-07-30T11:11:48;3.88;;;1.70;;
69083;SDS011;56185;48.526;9.044;2023-07-30T11:14:19;3.42;;;1.73;;
69083;SDS011;56185;48.526;9.044;2023-07-30T11:19:14;2.60;;;1.63;;
69083;SDS011;56185;48.526;9.044;2023-07-30T11:21:46;3.60;;;1.57;;
69083;SDS011;56185;48.526;9.044;2023-07-30T11:24:12;3.28;;;1.50;;
69083;SDS011;56185;48.526;9.044;2023-07-30T11:26:38;2.30;;;1.60;;
69083;SDS011;56185;48.526;9.044;2023-07-30T11:31:56;2.67;;;1.30;;
69083;SDS011;56185;48.526;9.044;2023-07-30T11:34:23;4.03;;;1.80;;
69083;SDS011;56185;48.526;9.044;2023-07-30T11:36:48;2.80;;;1.77;;
69083;SDS011;56185;48.526;9.044;2023-07-30T11:39:16;3.90;;;1.50;;
69083;SDS011;56185;48.526;9.044;2023-07-30T11:41:44;3.03;;;1.40;;
69083;SDS011;56185;48.526;9.044;2023-07-30T11:44:34;3.90;;;1.50;;
69083;SDS011;56185;48.526;9.044;2023-07-30T11:47:00;2.55;;;1.63;;
69083;SDS011;56185;48.526;9.044;2023-07-30T11:49:26;3.55;;;1.75;;
69083;SDS011;56185;48.526;9.044;2023-07-30T11:52:03;2.70;;;1.70;;
69083;SDS011;56185;48.526;9.044;2023-07-30T11:54:32;2.08;;;1.40;;
69083;SDS011;56185;48.526;9.044;2023-07-30T11:57:04;2.53;;;1.58;;
69083;SDS011;56185;48.526;9.044;2023-07-30T11:59:30;2.53;;;1.55;;
69083;SDS011;56185;48.526;9.044;2023-07-30T12:01:57;2.78;;;1.50;;
69083;SDS011;56185;48.526;9.044;2023-07-30T12:07:35;2.83;;;1.63;;
69083;SDS011;56185;48.526;9.044;2023-07-30T12:10:11;3.97;;;1.55;;
69083;SDS011;56185;48.526;9.044;2023-07-30T12:12:50;2.35;;;1.50;;
69083;SDS011;56185;48.526;9.044;2023-07-30T12:15:23;3.03;;;1.42;;
69083;SDS011;56185;48.526;9.044;2023-07-30T12:17:48;2.72;;;1.33;;
69083;SDS011;56185;48.526;9.044;2023-07-30T12:20:15;2.83;;;1.50;;
69083;SDS011;56185;48.526;9.044;2023-07-30T12:25:16;2.80;;;1.60;;
69083;SDS011;56185;48.526;9.044;2023-07-30T12:30:30;4.50;;;1.58;;
69083;SDS011;56185;48.526;9.044;2023-07-30T12:33:10;2.97;;;1.33;;
69083;SDS011;56185;48.526;9.044;2023-07-30T12:35:35;2.38;;;1.35;;
69083;SDS011;56185;48.526;9.044;2023-07-30T12:38:08;4.03;;;1.47;;
69083;SDS011;56185;48.526;9.044;2023-07-30T12:40:33;2.88;;;1.40;;
69083;SDS011;56185;48.526;9.044;2023-07-30T12:42:58;4.00;;;1.70;;
69083;SDS011;56185;48.526;9.044;2023-07-30T12:45:24;2.97;;;1.50;;
69083;SDS011;56185;48.526;9.044;2023-07-30T12:47:50;3.17;;;1.35;;
69083;SDS011;56185;48.526;9.044;2023-07-30T12:53:10;3.88;;;1.52;;
69083;SDS011;56185;48.526;9.044;2023-07-30T12:55:36;3.20;;;1.60;;
69083;SDS011;56185;48.526;9.044;2023-07-30T12:58:01;2.47;;;1.47;;
69083;SDS011;56185;48.526;9.044;2023-07-30T13:00:27;2.50;;;1.58;;
69083;SDS011;56185;48.526;9.044;2023-07-30T13:08:09;3.58;;;1.80;;
69083;SDS011;56185;48.526;9.044;2023-07-30T13:10:34;2.40;;;1.53;;
69083;SDS011;56185;48.526;9.044;2023-07-30T13:13:00;3.63;;;1.70;;
69083;SDS011;56185;48.526;9.044;2023-07-30T13:15:25;2.93;;;1.57;;
69083;SDS011;56185;48.526;9.044;2023-07-30T13:17:50;2.40;;;1.40;;
69083;SDS011;56185;48.526;9.044;2023-07-30T13:20:16;2.40;;;1.57;;
69083;SDS011;56185;48.526;9.044;2023-07-30T13:22:42;3.92;;;1.55;;
69083;SDS011;56185;48.526;9.044;2023-07-30T13:25:07;4.07;;;1.67;;
69083;SDS011;56185;48.526;9.044;2023-07-30T13:27:32;2.92;;;1.70;;
69083;SDS011;56185;48.526;9.044;2023-07-30T13:29:58;3.80;;;1.70;;
69083;SDS011;56185;48.526;9.044;2023-07-30T13:32:34;3.57;;;1.80;;
69083;SDS011;56185;48.526;9.044;2023-07-30T13:34:59;3.30;;;1.63;;
69083;SDS011;56185;48.526;9.044;2023-07-30T13:37:25;2.87;;;1.70;;
69083;SDS011;56185;48.526;9.044;2023-07-30T13:39:50;3.40;;;1.50;;
69083;SDS011;56185;48.526;9.044;2023-07-30T13:42:15;3.67;;;1.97;;
69083;SDS011;56185;48.526;9.044;2023-07-30T13:44:40;2.30;;;1.60;;
69083;SDS011;56185;48.526;9.044;2023-07-30T13:47:06;3.67;;;1.70;;
69083;SDS011;56185;48.526;9.044;2023-07-30T13:49:31;2.65;;;1.70;;
69083;SDS011;56185;48.526;9.044;2023-07-30T13:54:31;3.38;;;1.70;;
69083;SDS011;56185;48.526;9.044;2023-07-30T13:56:56;2.67;;;1.67;;
69083;SDS011;56185;48.526;9.044;2023-07-30T13:59:32;4.73;;;1.63;;
69083;SDS011;56185;48.526;9.044;2023-07-30T14:01:57;3.33;;;1.50;;
69083;SDS011;56185;48.526;9.044;2023-07-30T14:04:22;6.20;;;1.80;;
69083;SDS011;56185;48.526;9.044;2023-07-30T14:07:00;4.40;;;1.53;;
69083;SDS011;56185;48.526;9.044;2023-07-30T14:09:25;3.25;;;1.63;;
69083;SDS011;56185;48.526;9.044;2023-07-30T14:11:50;3.57;;;1.80;;
69083;SDS011;56185;48.526;9.044;2023-07-30T14:14:15;2.67;;;1.40;;
69083;SDS011;56185;48.526;9.044;2023-07-30T14:16:41;2.63;;;1.60;;
69083;SDS011;56185;48.526;9.044;2023-07-30T14:19:06;1.65;;;1.27;;
69083;SDS011;56185;48.526;9.044;2023-07-30T14:21:31;3.40;;;1.50;;
69083;SDS011;56185;48.526;9.044;2023-07-30T14:23:56;4.10;;;1.60;;
69083;SDS011;56185;48.526;9.044;2023-07-30T14:26:22;3.23;;;1.43;;
69083;SDS011;56185;48.526;9.044;2023-07-30T14:28:47;3.58;;;1.70;;
69083;SDS011;56185;48.526;9.044;2023-07-30T14:31:12;4.43;;;1.60;;
69083;SDS011;56185;48.526;9.044;2023-07-30T14:33:37;2.97;;;1.60;;
69083;SDS011;56185;48.526;9.044;2023-07-30T14:36:03;3.00;;;1.40;;
69083;SDS011;56185;48.526;9.044;2023-07-30T14:38:28;2.38;;;1.50;;
69083;SDS011;56185;48.526;9.044;2023-07-30T14:40:54;3.03;;;1.67;;
69083;SDS011;56185;48.526;9.044;2023-07-30T14:43:19;5.13;;;1.60;;
69083;SDS011;56185;48.526;9.044;2023-07-30T14:45:44;2.53;;;1.30;;
69083;SDS011;56185;48.526;9.044;2023-07-30T14:48:10;3.58;;;1.55;;
69083;SDS011;56185;48.526;9.044;2023-07-30T14:50:36;4.30;;;1.40;;
69083;SDS011;56185;48.526;9.044;2023-07-30T14:53:01;4.18;;;1.40;;
69083;SDS011;56185;48.526;9.044;2023-07-30T14:55:28;3.00;;;1.50;;
69083;SDS011;56185;48.526;9.044;2023-07-30T14:57:54;4.85;;;1.52;;
69083;SDS011;56185;48.526;9.044;2023-07-30T15:00:26;3.50;;;1.23;;
69083;SDS011;56185;48.526;9.044;2023-07-30T15:02:51;2.97;;;1.30;;
69083;SDS011;56185;48.526;9.044;2023-07-30T15:05:16;3.40;;;1.43;;
69083;SDS011;56185;48.526;9.044;2023-07-30T15:07:54;2.77;;;1.30;;
69083;SDS011;56185;48.526;9.044;2023-07-30T15:10:20;2.08;;;1.20;;
69083;SDS011;56185;48.526;9.044;2023-07-30T15:12:45;3.03;;;1.30;;
69083;SDS011;56185;48.526;9.044;2023-07-30T15:15:12;3.67;;;1.40;;
69083;SDS011;56185;48.526;9.044;2023-07-30T15:17:38;3.05;;;1.30;;
69083;SDS011;56185;48.526;9.044;2023-07-30T15:20:05;2.83;;;1.33;;
69083;SDS011;56185;48.526;9.044;2023-07-30T15:22:31;3.60;;;1.33;;
69083;SDS011;56185;48.526;9.044;2023-07-30T15:24:56;2.77;;;1.30;;
69083;SDS011;56185;48.526;9.044;2023-07-30T15:27:21;3.30;;;1.30;;
69083;SDS011;56185;48.526;9.044;2023-07-30T15:29:47;3.67;;;1.20;;
69083;SDS011;56185;48.526;9.044;2023-07-30T15:32:13;3.38;;;1.25;;
69083;SDS011;56185;48.526;9.044;2023-07-30T15:34:38;3.05;;;1.35;;
69083;SDS011;56185;48.526;9.044;2023-07-30T15:37:06;3.03;;;1.10;;
69083;SDS011;56185;48.526;9.044;2023-07-30T15:39:32;2.50;;;1.10;;
69083;SDS011;56185;48.526;9.044;2023-07-30T15:41:57;2.37;;;1.20;;
69083;SDS011;56185;48.526;9.044;2023-07-30T15:44:22;2.53;;;1.20;;
69083;SDS011;56185;48.526;9.044;2023-07-30T15:47:00;6.90;;;1.20;;
69083;SDS011;56185;48.526;9.044;2023-07-30T15:49:26;3.28;;;1.40;;
69083;SDS011;56185;48.526;9.044;2023-07-30T15:51:51;4.30;;;1.20;;
69083;SDS011;56185;48.526;9.044;2023-07-30T15:54:29;4.00;;;1.10;;
69083;SDS011;56185;48.526;9.044;2023-07-30T15:56:55;2.97;;;1.40;;
69083;SDS011;56185;48.526;9.044;2023-07-30T15:59:21;3.37;;;1.10;;
69083;SDS011;56185;48.526;9.044;2023-07-30T16:04:28;4.82;;;1.30;;
69083;SDS011;56185;48.526;9.044;2023-07-30T16:06:55;6.90;;;1.30;;
69083;SDS011;56185;48.526;9.044;2023-07-30T16:09:21;3.05;;;1.10;;